Řízení letového provozu České republiky  
Aktualizace dat:  06.07.2022 06:36:31 UTC English version
   METEO Zobrazení stránky:  06.07.2022 06:37:27 UTC  
vysvětlivky
METAR EDDB 060620Z 30011KT 270V330 9999 FEW030 17/09 Q1021 NOSIG=
METAR EDDC 060620Z AUTO 34006KT 310V010 CAVOK 15/11 Q1022 NOSIG=
METAR EDDE 060620Z AUTO 27006KT 9999 FEW022 BKN047 15/10 Q1023 NOSIG=
METAR EDDF 060620Z 32010KT 9999 SCT038 16/09 Q1024 NOSIG=
METAR EDDM 060620Z AUTO 26005KT 220V280 CAVOK 17/11 Q1023 NOSIG=
METAR EDDN 060620Z AUTO 31005KT 270V350 CAVOK 18/10 Q1023 NOSIG=
METAR EDDP 060620Z 32011KT 290V350 CAVOK 16/09 Q1023 NOSIG=
METAR EDQM 060620Z 35007KT 310V030 CAVOK 13/09 Q1023=
METAR EPBY 060630Z 29007KT 230V320 9999 FEW034 19/10 Q1018=
METAR EPGD 060630Z 30012KT 9999 FEW025 17/11 Q1017=
METAR EPKK 060630Z 32005KT 290V360 9999 SCT018 18/14 Q1018=
METAR EPKT 060630Z 25007KT 210V280 9999 SCT006 BKN007 16/15 Q1019=
METAR EPLL 060630Z 03009KT 010V070 CAVOK 19/12 Q1018=
METAR EPPO 060630Z VRB02KT 9999 FEW049 21/12 Q1019=
METAR EPRZ 060630Z 32010KT 9999 BKN008 16/15 Q1016=
METAR EPWA 060630Z 34003KT 290V030 9999 BKN012 17/15 Q1017 BECMG SCT015=
METAR EPWR 060630Z 29009KT 9999 FEW025CB 15/14 Q1020=
METAR LHBP 060630Z 34007KT 280V040 9999 FEW023 22/15 Q1016 NOSIG=
METAR LHSM 060615Z AUTO 33007KT CAVOK 21/16 Q1019 NOSIG=
METAR LKBC NIL
METAR LKCS 060630Z AUTO 33006KT 290V010 9999 FEW015/// 17/14 Q1021=
METAR LKCV 060630Z 29006KT CAVOK 16/12 Q1021 NOSIG RMK BLU BLU=
METAR LKKB 060630Z VRB02KT CAVOK 17/11 Q1021 NOSIG RMK BLU BLU=
METAR LKKU NIL
METAR LKKV 060630Z 27003KT 200V310 CAVOK 15/08 Q1022=
METAR LKLN 060630Z AUTO VRB02KT 9999 BKN089 BKN130 14/12 Q1022=
METAR LKMT 060630Z 04004KT 340V070 9999 FEW014 SCT045 18/15 Q1020 NOSIG=
METAR LKNA 060630Z 31010KT 9999 FEW040CB BKN080 15/12 Q1020 NOSIG RMK BLU BLU=
SPECI LKPD 060612Z 25004KT 200V280 9999 SCT007 BKN043 15/14 Q1021 RMK BLU=
METAR LKPJ 060630Z AUTO VRB01KT 9999 SCT086/// BKN100/// 17/14 Q1019=
METAR LKPR 060630Z 28004KT 240V300 CAVOK 17/11 Q1022 NOSIG=
METAR LKTB 060630Z 28009KT CAVOK 18/13 Q1019 NOSIG=
METAR LKVO NIL
METAR LOWI 060620Z 29006KT 9999 FEW025 16/14 Q1024 NOSIG=
METAR LOWL 060620Z AUTO 27006KT 240V300 9999 FEW040 18/15 Q1021 NOSIG=
METAR LOWS 060620Z AUTO 15008KT 9999 FEW070 BKN080 18/14 Q1022 NOSIG=
METAR LOWW 060620Z 32003KT 270V010 9999 FEW050 FEW050CB 21/15 Q1019 TEMPO 30015G25KT=
METAR LZIB 060630Z 32007KT CAVOK 22/11 Q1018 NOSIG=
METAR LZKZ 060630Z 05004KT 030V090 9999 FEW025 SCT031 19/15 Q1016 NOSIG=
METAR LZMC NIL
METAR LZPP 060630Z 34010KT CAVOK 20/14 Q1018=
METAR LZSL NIL
METAR LZTT 060630Z 26004KT 210V280 9999 FEW010 BKN020 17/13 Q1017 NOSIG=
METAR LZZI 060630Z 01005KT 310V060 9999 FEW032 19/14 Q1018=